Terminal Aerodrome Forecast
Issued by NWS Charleston, WV

Current Version | Previous Version | Graphics & Text | Print | Product List | Glossary On
Versions: 1 2 3 4 5 6 7 8 9 10 11 12 13 14 15 16 17 18 19 20 21 22 23 24 25 26 27 28 29 30 31 32 33 34 35
951
FTUS41 KRLX 230435 AAB
TAFHTS
TAF AMD
KHTS 230435Z 2305/2324 20004KT P6SM SCT080 BKN120
     FM230600 VRB12G22KT 2SM TSRA BKN015CB
     FM230700 21004KT P6SM BKN045
     FM230800 29003KT 2SM BR OVC008
     FM231200 34003KT 4SM BR BKN008
     FM231400 36003KT P6SM BKN015
     FM231600 36003KT P6SM SCT080=

USA.gov is the U.S. government's official web portal to all federal, state and local government web resources and services.